Topeka, Mississippi
Current Conditions -  °F | °C
As of 7:15 PM on Friday 31 Oct 2014 (Local Time) from K1R7 Reporting Station
Clear Clear  
Wind Chill: 57°   Ceiling: Unl
Heat Index: 57°   Visibility: 10mi
Dew Point: 45°   Wind: 8mph
Humidity: 63%   Direction: 350°N
Pressure: 30.17"   Gusts: 21mph
Location:  31.4096°N, 90.1856°W
Report Text: K1R7 010015Z AUTO 35007G18KT 10SM CLR 14/07 A3017 RMK AO2
Loading
Personal Weather Stations






























Interactive Weather Map
Tropical Storm Tracking
New forecast layout! Learn more

10-Day Weather Forecast

Advertisements
Track Severe Weather on mobile